sensor_id;sensor_type;location;lat;lon;timestamp;P1;durP1;ratioP1;P2;durP2;ratioP2
74935;SDS011;63501;55.570;37.488;2024-02-15T10:11:25;11.60;;;9.15;;
74935;SDS011;63501;55.570;37.488;2024-02-15T10:14:15;11.40;;;9.63;;
74935;SDS011;63501;55.570;37.488;2024-02-15T10:17:00;11.70;;;9.27;;
74935;SDS011;63501;55.570;37.488;2024-02-15T10:20:02;11.68;;;8.93;;
74935;SDS011;63501;55.570;37.488;2024-02-15T10:22:36;16.13;;;10.30;;
74935;SDS011;63501;55.570;37.488;2024-02-15T10:27:46;12.90;;;10.70;;
74935;SDS011;63501;55.570;37.488;2024-02-15T10:30:18;14.30;;;10.95;;
74935;SDS011;63501;55.570;37.488;2024-02-15T10:35:42;12.98;;;9.65;;
74935;SDS011;63501;55.570;37.488;2024-02-15T10:38:24;11.55;;;9.15;;
74935;SDS011;63501;55.570;37.488;2024-02-15T10:44:57;11.70;;;9.00;;
74935;SDS011;63501;55.570;37.488;2024-02-15T10:58:59;8.75;;;7.40;;
74935;SDS011;63501;55.570;37.488;2024-02-15T11:46:25;6.07;;;4.90;;
74935;SDS011;63501;55.570;37.488;2024-02-15T11:49:59;7.07;;;4.30;;
74935;SDS011;63501;55.570;37.488;2024-02-15T12:29:03;5.00;;;3.95;;
74935;SDS011;63501;55.570;37.488;2024-02-15T12:32:12;5.47;;;4.38;;
74935;SDS011;63501;55.570;37.488;2024-02-15T12:39:45;5.75;;;4.00;;
74935;SDS011;63501;55.570;37.488;2024-02-15T12:50:02;5.55;;;4.35;;
74935;SDS011;63501;55.570;37.488;2024-02-15T12:53:02;6.20;;;3.92;;
74935;SDS011;63501;55.570;37.488;2024-02-15T12:56:26;5.50;;;3.55;;
74935;SDS011;63501;55.570;37.488;2024-02-15T13:01:16;8.40;;;4.07;;
74935;SDS011;63501;55.570;37.488;2024-02-15T20:03:03;5.35;;;4.00;;
74935;SDS011;63501;55.570;37.488;2024-02-15T20:06:45;4.65;;;3.50;;
74935;SDS011;63501;55.570;37.488;2024-02-15T20:09:52;4.60;;;3.70;;
74935;SDS011;63501;55.570;37.488;2024-02-15T20:13:00;3.63;;;3.05;;
74935;SDS011;63501;55.570;37.488;2024-02-15T20:31:33;4.82;;;3.53;;
74935;SDS011;63501;55.570;37.488;2024-02-15T20:34:11;5.38;;;3.30;;
74935;SDS011;63501;55.570;37.488;2024-02-15T20:36:44;3.90;;;3.30;;
74935;SDS011;63501;55.570;37.488;2024-02-15T20:39:17;5.53;;;3.92;;
74935;SDS011;63501;55.570;37.488;2024-02-15T20:41:52;3.75;;;3.17;;
74935;SDS011;63501;55.570;37.488;2024-02-15T20:44:43;4.03;;;3.50;;
74935;SDS011;63501;55.570;37.488;2024-02-15T20:47:35;4.80;;;3.58;;
74935;SDS011;63501;55.570;37.488;2024-02-15T20:50:31;4.40;;;3.22;;
74935;SDS011;63501;55.570;37.488;2024-02-15T20:53:11;6.28;;;3.28;;
74935;SDS011;63501;55.570;37.488;2024-02-15T20:55:56;3.55;;;3.00;;
74935;SDS011;63501;55.570;37.488;2024-02-15T20:58:49;3.78;;;3.38;;
74935;SDS011;63501;55.570;37.488;2024-02-15T21:01:25;5.32;;;3.45;;
74935;SDS011;63501;55.570;37.488;2024-02-15T21:03:59;4.68;;;4.05;;
74935;SDS011;63501;55.570;37.488;2024-02-15T21:06:29;3.40;;;3.08;;
74935;SDS011;63501;55.570;37.488;2024-02-15T21:09:14;4.03;;;3.42;;
74935;SDS011;63501;55.570;37.488;2024-02-15T21:11:47;5.22;;;3.40;;
74935;SDS011;63501;55.570;37.488;2024-02-15T21:14:42;5.22;;;3.33;;
74935;SDS011;63501;55.570;37.488;2024-02-15T21:17:21;4.85;;;3.38;;
74935;SDS011;63501;55.570;37.488;2024-02-15T21:20:02;4.32;;;3.25;;
74935;SDS011;63501;55.570;37.488;2024-02-15T21:22:47;3.67;;;3.22;;
74935;SDS011;63501;55.570;37.488;2024-02-15T21:25:52;3.50;;;3.20;;
74935;SDS011;63501;55.570;37.488;2024-02-15T21:28:51;5.88;;;3.40;;
74935;SDS011;63501;55.570;37.488;2024-02-15T21:31:36;4.57;;;3.53;;
74935;SDS011;63501;55.570;37.488;2024-02-15T21:34:17;4.82;;;3.35;;
74935;SDS011;63501;55.570;37.488;2024-02-15T21:44:11;5.57;;;3.20;;
74935;SDS011;63501;55.570;37.488;2024-02-15T21:49:42;6.40;;;2.97;;
74935;SDS011;63501;55.570;37.488;2024-02-15T21:52:39;4.43;;;3.28;;
74935;SDS011;63501;55.570;37.488;2024-02-15T21:55:48;4.00;;;2.90;;
74935;SDS011;63501;55.570;37.488;2024-02-15T21:58:52;4.10;;;3.30;;
74935;SDS011;63501;55.570;37.488;2024-02-15T22:04:55;5.30;;;3.08;;
74935;SDS011;63501;55.570;37.488;2024-02-15T22:07:59;4.75;;;3.45;;
74935;SDS011;63501;55.570;37.488;2024-02-15T22:15:11;4.40;;;3.13;;
74935;SDS011;63501;55.570;37.488;2024-02-15T22:25:15;3.97;;;3.13;;
74935;SDS011;63501;55.570;37.488;2024-02-15T22:28:23;4.80;;;3.40;;
74935;SDS011;63501;55.570;37.488;2024-02-15T22:31:20;5.20;;;3.05;;
74935;SDS011;63501;55.570;37.488;2024-02-15T22:37:27;4.78;;;3.35;;
74935;SDS011;63501;55.570;37.488;2024-02-15T22:40:33;4.38;;;3.15;;
74935;SDS011;63501;55.570;37.488;2024-02-15T22:43:45;5.32;;;3.60;;
74935;SDS011;63501;55.570;37.488;2024-02-15T22:46:33;3.90;;;3.20;;
74935;SDS011;63501;55.570;37.488;2024-02-15T22:53:05;3.53;;;3.20;;
74935;SDS011;63501;55.570;37.488;2024-02-15T22:56:01;7.47;;;2.95;;
74935;SDS011;63501;55.570;37.488;2024-02-15T22:58:40;4.78;;;3.58;;
74935;SDS011;63501;55.570;37.488;2024-02-15T23:01:28;4.20;;;3.10;;
74935;SDS011;63501;55.570;37.488;2024-02-15T23:04:16;3.78;;;3.38;;
74935;SDS011;63501;55.570;37.488;2024-02-15T23:11:06;5.50;;;3.15;;
74935;SDS011;63501;55.570;37.488;2024-02-15T23:13:48;5.13;;;3.38;;
74935;SDS011;63501;55.570;37.488;2024-02-15T23:16:26;4.47;;;3.30;;
74935;SDS011;63501;55.570;37.488;2024-02-15T23:19:09;5.10;;;3.50;;
74935;SDS011;63501;55.570;37.488;2024-02-15T23:21:41;4.88;;;3.60;;
74935;SDS011;63501;55.570;37.488;2024-02-15T23:24:20;5.72;;;3.60;;
74935;SDS011;63501;55.570;37.488;2024-02-15T23:31:01;3.58;;;2.80;;
74935;SDS011;63501;55.570;37.488;2024-02-15T23:36:44;4.03;;;3.17;;
74935;SDS011;63501;55.570;37.488;2024-02-15T23:37:33;4.65;;;3.40;;
74935;SDS011;63501;55.570;37.488;2024-02-15T23:40:56;6.75;;;3.20;;
74935;SDS011;63501;55.570;37.488;2024-02-15T23:44:18;3.65;;;3.15;;
74935;SDS011;63501;55.570;37.488;2024-02-15T23:47:37;4.43;;;3.25;;
74935;SDS011;63501;55.570;37.488;2024-02-15T23:51:26;3.88;;;3.22;;
74935;SDS011;63501;55.570;37.488;2024-02-15T23:54:25;4.15;;;3.17;;
74935;SDS011;63501;55.570;37.488;2024-02-15T23:59:53;5.72;;;3.20;;
